createdAt,value
2018-10-04T00:02:10.131Z,4.90
2018-10-04T00:04:38.474Z,5.60
2018-10-04T00:07:06.666Z,5.73
2018-10-04T00:09:35.343Z,4.97
2018-10-04T00:12:03.788Z,5.63
2018-10-04T00:14:32.282Z,5.37
2018-10-04T00:17:00.656Z,4.90
2018-10-04T00:19:28.906Z,5.20
2018-10-04T00:21:57.163Z,5.20
2018-10-04T00:24:26.333Z,5.43
2018-10-04T00:26:54.529Z,4.43
2018-10-04T00:29:22.767Z,5.23
2018-10-04T00:31:51.095Z,5.13
2018-10-04T00:34:19.374Z,4.97
2018-10-04T00:36:47.626Z,4.30
2018-10-04T00:39:15.878Z,4.53
2018-10-04T00:41:44.634Z,5.37
2018-10-04T00:44:12.887Z,5.50
2018-10-04T00:46:41.434Z,5.07
2018-10-04T00:49:10.064Z,5.37
2018-10-04T00:51:38.373Z,4.93
2018-10-04T00:54:06.708Z,5.03
2018-10-04T00:56:35.210Z,4.80
2018-10-04T00:59:04.053Z,5.40
2018-10-04T01:01:32.545Z,6.00
2018-10-04T01:04:00.955Z,5.07
2018-10-04T01:06:29.599Z,5.33
2018-10-04T01:08:57.841Z,5.30
2018-10-04T01:11:27.124Z,5.37
2018-10-04T01:13:55.711Z,5.43
2018-10-04T01:16:24.129Z,4.83
2018-10-04T01:18:55.539Z,5.60
2018-10-04T01:21:24.053Z,4.70
2018-10-04T01:23:54.245Z,5.33
2018-10-04T01:26:22.582Z,5.23
2018-10-04T01:28:51.464Z,4.97
2018-10-04T01:31:21.214Z,4.73
2018-10-04T01:33:50.277Z,5.10
2018-10-04T01:36:19.385Z,5.03
2018-10-04T01:38:48.566Z,4.63
2018-10-04T01:41:17.353Z,5.00
2018-10-04T01:43:45.553Z,4.73
2018-10-04T01:46:13.750Z,4.90
2018-10-04T01:48:42.133Z,5.70
2018-10-04T01:51:10.704Z,4.70
2018-10-04T01:53:38.909Z,5.57
2018-10-04T01:56:07.122Z,5.30
2018-10-04T01:58:35.333Z,5.20
2018-10-04T02:01:04.147Z,4.30
2018-10-04T02:03:32.618Z,5.33
2018-10-04T02:06:00.937Z,4.83
2018-10-04T02:08:29.198Z,4.80
2018-10-04T02:10:57.447Z,4.67
2018-10-04T02:13:25.893Z,4.87
2018-10-04T02:15:55.145Z,5.13
2018-10-04T02:18:23.341Z,5.10
2018-10-04T02:20:51.790Z,5.10
2018-10-04T02:23:20.034Z,5.40
2018-10-04T02:25:48.590Z,4.53
2018-10-04T02:28:17.007Z,4.87
2018-10-04T02:30:45.210Z,5.30
2018-10-04T02:33:13.457Z,5.80
2018-10-04T02:35:41.754Z,5.70
2018-10-04T02:38:10.579Z,6.60
2018-10-04T02:40:38.842Z,6.50
2018-10-04T02:43:07.103Z,6.10
2018-10-04T02:45:35.370Z,6.30
2018-10-04T02:48:04.199Z,7.53
2018-10-04T02:50:33.234Z,6.73
2018-10-04T02:53:01.778Z,6.30
2018-10-04T02:55:35.373Z,6.07
2018-10-04T02:58:04.162Z,6.50
2018-10-04T03:00:32.638Z,6.37
2018-10-04T03:03:02.542Z,6.30
2018-10-04T03:05:30.760Z,6.50
2018-10-04T03:07:58.982Z,6.10
2018-10-04T03:10:27.255Z,5.70
2018-10-04T03:12:56.700Z,6.03
2018-10-04T03:15:24.994Z,6.20
2018-10-04T03:17:53.289Z,6.70
2018-10-04T03:20:21.695Z,6.50
2018-10-04T03:22:49.989Z,6.43
2018-10-04T03:25:18.969Z,6.67
2018-10-04T03:27:47.371Z,7.13
2018-10-04T03:30:15.737Z,6.47
2018-10-04T03:32:43.868Z,5.90
2018-10-04T03:35:12.083Z,5.60
2018-10-04T03:37:40.298Z,7.00
2018-10-04T03:40:08.482Z,7.63
2018-10-04T03:42:36.658Z,6.67
2018-10-04T03:45:04.951Z,6.53
2018-10-04T03:47:33.522Z,6.77
2018-10-04T03:50:01.948Z,6.60
2018-10-04T03:52:30.157Z,7.00
2018-10-04T03:54:58.433Z,6.70
2018-10-04T03:57:26.868Z,6.83
2018-10-04T03:59:55.221Z,6.70
2018-10-04T04:02:23.453Z,6.70
2018-10-04T04:04:51.702Z,6.93
2018-10-04T04:07:19.931Z,7.37
2018-10-04T04:09:49.074Z,6.33
2018-10-04T04:12:17.461Z,6.40
2018-10-04T04:14:45.717Z,6.33
2018-10-04T04:17:14.029Z,8.13
2018-10-04T04:19:42.365Z,7.57
2018-10-04T04:22:10.911Z,7.30
2018-10-04T04:24:39.626Z,6.97
2018-10-04T04:27:08.121Z,6.80
2018-10-04T04:29:36.522Z,6.70
2018-10-04T04:32:05.039Z,6.53
2018-10-04T04:34:33.289Z,6.67
2018-10-04T04:37:01.543Z,6.80
2018-10-04T04:39:29.710Z,6.87
2018-10-04T04:41:57.928Z,6.77
2018-10-04T04:44:26.224Z,7.10
2018-10-04T04:46:54.915Z,7.90
2018-10-04T04:49:23.095Z,7.07
2018-10-04T04:51:51.282Z,8.77
2018-10-04T04:55:34.505Z,8.63
2018-10-04T04:58:03.894Z,7.63
2018-10-04T05:00:33.133Z,7.83
2018-10-04T05:03:01.470Z,7.77
2018-10-04T05:05:30.470Z,7.60
2018-10-04T05:07:59.911Z,7.80
2018-10-04T05:10:28.687Z,6.80
2018-10-04T05:12:57.969Z,7.60
2018-10-04T05:15:27.035Z,7.27
2018-10-04T05:17:55.575Z,7.00
2018-10-04T05:20:24.171Z,6.97
2018-10-04T05:22:52.606Z,7.03
2018-10-04T05:25:20.807Z,7.40
2018-10-04T05:27:49.932Z,7.37
2018-10-04T05:30:18.607Z,7.23
2018-10-04T05:32:47.952Z,6.40
2018-10-04T05:35:16.774Z,7.83
2018-10-04T05:37:45.327Z,6.53
2018-10-04T05:40:13.851Z,7.77
2018-10-04T05:42:42.203Z,6.87
2018-10-04T05:45:10.793Z,6.83
2018-10-04T05:47:38.937Z,7.90
2018-10-04T05:50:07.186Z,8.00
2018-10-04T05:52:35.412Z,7.50
2018-10-04T05:55:03.829Z,8.17
2018-10-04T05:57:32.046Z,8.30
2018-10-04T06:00:11.695Z,7.70
2018-10-04T06:02:40.068Z,7.30
2018-10-04T06:05:08.642Z,8.47
2018-10-04T06:07:36.969Z,8.63
2018-10-04T06:10:05.702Z,7.60
2018-10-04T06:12:34.069Z,8.60
2018-10-04T06:15:02.430Z,8.47
2018-10-04T06:17:30.646Z,9.37
2018-10-04T06:19:58.843Z,8.83
2018-10-04T06:22:27.063Z,9.40
2018-10-04T06:24:56.239Z,8.70
2018-10-04T06:27:24.462Z,8.83
2018-10-04T06:29:52.926Z,8.27
2018-10-04T06:32:21.137Z,8.90
2018-10-04T06:34:49.464Z,8.90
2018-10-04T06:37:18.343Z,8.00
2018-10-04T06:39:46.675Z,8.20
2018-10-04T06:42:15.125Z,8.80
2018-10-04T06:44:43.312Z,9.13
2018-10-04T06:47:12.397Z,7.80
2018-10-04T06:49:40.826Z,8.80
2018-10-04T06:52:09.103Z,9.33
2018-10-04T06:54:37.291Z,8.80
2018-10-04T06:57:05.552Z,9.03
2018-10-04T06:59:34.070Z,7.67
2018-10-04T07:02:02.459Z,7.50
2018-10-04T07:04:30.664Z,7.50
2018-10-04T07:06:58.950Z,7.83
2018-10-04T07:09:27.151Z,6.57
2018-10-04T07:11:56.584Z,6.47
2018-10-04T07:14:25.226Z,6.50
2018-10-04T07:16:53.477Z,6.23
2018-10-04T07:19:21.878Z,6.83
2018-10-04T07:21:50.143Z,6.73
2018-10-04T07:24:18.495Z,6.57
2018-10-04T07:26:46.712Z,7.03
2018-10-04T07:29:14.907Z,6.60
2018-10-04T07:31:43.222Z,7.03
2018-10-04T07:34:11.647Z,6.10
2018-10-04T07:36:39.922Z,6.60
2018-10-04T07:39:10.580Z,6.27
2018-10-04T07:41:38.851Z,5.73
2018-10-04T07:44:07.263Z,5.83
2018-10-04T07:46:35.712Z,6.00
2018-10-04T07:49:04.228Z,5.70
2018-10-04T07:51:32.589Z,5.63
2018-10-04T07:54:00.840Z,5.40
2018-10-04T07:56:29.117Z,5.20
2018-10-04T07:58:57.387Z,5.00
2018-10-04T08:01:25.650Z,4.90
2018-10-04T08:03:54.014Z,5.93
2018-10-04T08:06:22.501Z,4.60
2018-10-04T08:08:50.577Z,4.80
2018-10-04T08:11:19.796Z,5.00
2018-10-04T08:13:49.189Z,5.23
2018-10-04T08:16:17.437Z,4.72
2018-10-04T08:18:45.862Z,4.47
2018-10-04T08:21:14.256Z,4.90
2018-10-04T08:23:42.452Z,5.25
2018-10-04T08:26:10.912Z,4.55
2018-10-04T08:28:39.205Z,4.92
2018-10-04T08:31:07.554Z,4.65
2018-10-04T08:33:35.948Z,5.42
2018-10-04T08:36:04.916Z,4.47
2018-10-04T08:38:33.711Z,5.03
2018-10-04T08:41:02.511Z,4.60
2018-10-04T08:43:30.782Z,4.53
2018-10-04T08:45:59.090Z,4.10
2018-10-04T08:48:27.381Z,4.62
2018-10-04T08:50:55.700Z,4.87
2018-10-04T08:53:23.968Z,5.00
2018-10-04T08:55:52.295Z,4.03
2018-10-04T08:58:20.531Z,4.90
2018-10-04T09:00:49.794Z,4.60
2018-10-04T09:03:19.809Z,4.45
2018-10-04T09:05:48.469Z,4.20
2018-10-04T09:08:17.536Z,4.22
2018-10-04T09:10:45.779Z,4.20
2018-10-04T09:13:14.030Z,3.83
2018-10-04T09:15:42.379Z,3.98
2018-10-04T09:18:10.761Z,3.55
2018-10-04T09:20:39.196Z,3.92
2018-10-04T09:23:07.427Z,4.22
2018-10-04T09:25:35.886Z,5.03
2018-10-04T09:28:06.208Z,4.08
2018-10-04T09:30:39.943Z,4.83
2018-10-04T09:33:08.206Z,4.40
2018-10-04T09:35:36.476Z,4.35
2018-10-04T09:38:04.757Z,3.75
2018-10-04T09:40:33.252Z,4.30
2018-10-04T09:43:01.903Z,4.20
2018-10-04T09:45:30.099Z,4.22
2018-10-04T09:47:58.451Z,3.60
2018-10-04T09:50:32.487Z,3.77
2018-10-04T09:53:00.734Z,4.47
2018-10-04T09:55:33.200Z,4.10
2018-10-04T09:58:02.276Z,4.42
2018-10-04T10:00:36.013Z,3.70
2018-10-04T10:03:08.411Z,4.50
2018-10-04T10:05:36.833Z,5.10
2018-10-04T10:08:04.997Z,5.25
2018-10-04T10:10:33.913Z,4.33
2018-10-04T10:13:02.419Z,4.05
2018-10-04T10:15:30.642Z,5.65
2018-10-04T10:17:58.924Z,4.78
2018-10-04T10:20:27.189Z,4.50
2018-10-04T10:22:55.494Z,4.75
2018-10-04T10:25:23.772Z,5.00
2018-10-04T10:27:52.020Z,4.60
2018-10-04T10:30:20.286Z,5.67
2018-10-04T10:32:49.095Z,4.47
2018-10-04T10:35:18.590Z,4.80
2018-10-04T10:37:46.799Z,5.03
2018-10-04T10:40:15.135Z,4.65
2018-10-04T10:42:43.266Z,4.60
2018-10-04T10:45:12.153Z,4.67
2018-10-04T10:47:41.115Z,4.58
2018-10-04T10:50:09.561Z,4.40
2018-10-04T10:52:37.795Z,4.58
2018-10-04T10:55:06.067Z,5.00
2018-10-04T10:57:34.435Z,5.15
2018-10-04T11:00:03.397Z,5.00
2018-10-04T11:02:32.624Z,5.25
2018-10-04T11:05:01.015Z,4.90
2018-10-04T11:07:29.495Z,4.25
2018-10-04T11:09:57.740Z,4.62
2018-10-04T11:12:27.036Z,5.53
2018-10-04T11:14:55.266Z,5.65
2018-10-04T11:17:23.496Z,4.90
2018-10-04T11:19:51.713Z,4.97
2018-10-04T11:22:19.926Z,4.50
2018-10-04T11:24:48.874Z,5.05
2018-10-04T11:27:17.665Z,4.28
2018-10-04T11:29:45.897Z,4.83
2018-10-04T11:32:14.813Z,4.20
2018-10-04T11:34:43.062Z,4.53
2018-10-04T11:37:12.281Z,4.83
2018-10-04T11:39:40.762Z,4.78
2018-10-04T11:42:09.496Z,4.60
2018-10-04T11:44:42.197Z,4.30
2018-10-04T11:47:16.527Z,3.40
2018-10-04T11:49:44.953Z,4.30
2018-10-04T11:52:13.196Z,4.67
2018-10-04T11:54:42.074Z,4.03
2018-10-04T11:57:11.646Z,4.65
2018-10-04T11:59:40.791Z,4.55
2018-10-04T12:02:09.064Z,4.47
2018-10-04T12:04:37.260Z,3.87
2018-10-04T12:07:05.610Z,4.15
2018-10-04T12:09:34.660Z,4.12
2018-10-04T12:12:03.453Z,4.17
2018-10-04T12:14:31.728Z,4.33
2018-10-04T12:17:00.115Z,4.25
2018-10-04T12:19:28.421Z,4.58
2018-10-04T12:21:57.195Z,4.15
2018-10-04T12:24:25.460Z,4.08
2018-10-04T12:26:53.670Z,4.08
2018-10-04T12:29:21.896Z,4.55
2018-10-04T12:31:50.117Z,3.98
2018-10-04T12:34:18.342Z,4.42
2018-10-04T12:36:46.611Z,3.62
2018-10-04T12:39:14.862Z,4.00
2018-10-04T12:41:43.081Z,4.05
2018-10-04T12:44:11.372Z,5.20
2018-10-04T12:46:39.538Z,4.35
2018-10-04T12:49:08.003Z,3.05
2018-10-04T12:51:36.281Z,3.77
2018-10-04T12:54:04.993Z,3.20
2018-10-04T12:56:33.777Z,3.50
2018-10-04T12:59:03.420Z,3.37
2018-10-04T13:01:31.685Z,3.20
2018-10-04T13:04:00.139Z,3.07
2018-10-04T13:06:28.404Z,3.83
2018-10-04T13:08:56.697Z,3.67
2018-10-04T13:11:25.185Z,3.83
2018-10-04T13:13:53.381Z,3.20
2018-10-04T13:16:21.586Z,3.40
2018-10-04T13:18:49.869Z,3.60
2018-10-04T13:21:19.226Z,3.67
2018-10-04T13:23:48.210Z,3.03
2018-10-04T13:26:16.377Z,3.40
2018-10-04T13:28:44.605Z,2.92
2018-10-04T13:31:12.857Z,3.97
2018-10-04T13:33:41.460Z,3.83
2018-10-04T13:36:09.773Z,3.80
2018-10-04T13:38:37.975Z,3.40
2018-10-04T13:41:06.199Z,3.73
2018-10-04T13:43:34.932Z,3.17
2018-10-04T13:46:03.253Z,3.67
2018-10-04T13:48:31.372Z,3.20
2018-10-04T13:50:59.865Z,3.37
2018-10-04T13:53:28.035Z,3.30
2018-10-04T13:55:56.263Z,3.23
2018-10-04T13:58:24.649Z,3.37
2018-10-04T14:00:52.854Z,2.77
2018-10-04T14:03:21.073Z,3.57
2018-10-04T14:05:49.686Z,3.47
2018-10-04T14:08:18.752Z,3.00
2018-10-04T14:10:46.933Z,3.43
2018-10-04T14:13:15.180Z,3.40
2018-10-04T14:15:43.324Z,3.43
2018-10-04T14:18:12.366Z,3.73
2018-10-04T14:20:40.677Z,3.67
2018-10-04T14:23:08.882Z,3.00
2018-10-04T14:25:37.113Z,3.87
2018-10-04T14:28:05.375Z,3.50
2018-10-04T14:30:33.834Z,3.67
2018-10-04T14:33:02.334Z,3.70
2018-10-04T14:35:30.504Z,3.67
2018-10-04T14:37:58.865Z,3.97
2018-10-04T14:40:27.658Z,3.03
2018-10-04T14:42:56.011Z,3.97
2018-10-04T14:45:24.205Z,3.53
2018-10-04T14:47:52.485Z,3.30
2018-10-04T14:50:20.689Z,3.47
2018-10-04T14:52:49.721Z,3.17
2018-10-04T14:55:18.162Z,3.50
2018-10-04T14:57:46.357Z,4.00
2018-10-04T15:00:14.694Z,2.90
2018-10-04T15:02:42.892Z,3.50
2018-10-04T15:05:11.235Z,3.03
2018-10-04T15:07:39.457Z,3.27
2018-10-04T15:10:07.790Z,3.13
2018-10-04T15:12:36.085Z,3.13
2018-10-04T15:15:04.482Z,3.07
2018-10-04T15:17:32.856Z,2.90
2018-10-04T15:20:01.050Z,3.10
2018-10-04T15:22:29.261Z,3.63
2018-10-04T15:24:57.657Z,3.10
2018-10-04T15:27:26.498Z,2.70
2018-10-04T15:29:55.377Z,3.20
2018-10-04T15:32:25.754Z,2.97
2018-10-04T15:34:54.059Z,2.90
2018-10-04T15:37:22.315Z,2.73
2018-10-04T15:39:50.603Z,3.17
2018-10-04T15:42:19.426Z,2.93
2018-10-04T15:44:47.610Z,3.10
2018-10-04T15:47:15.831Z,3.30
2018-10-04T15:49:44.006Z,3.03
2018-10-04T15:52:13.148Z,3.47
2018-10-04T15:54:41.517Z,2.70
2018-10-04T15:57:10.026Z,2.90
2018-10-04T15:59:38.207Z,3.07
2018-10-04T16:02:06.589Z,2.80
2018-10-04T16:04:34.942Z,3.03
2018-10-04T16:07:03.225Z,2.43
2018-10-04T16:09:31.433Z,2.87
2018-10-04T16:11:59.729Z,2.80
2018-10-04T16:14:27.990Z,3.03
2018-10-04T16:16:56.326Z,2.90
2018-10-04T16:19:25.278Z,2.77
2018-10-04T16:21:53.522Z,2.57
2018-10-04T16:24:22.107Z,2.67
2018-10-04T16:26:50.332Z,2.50
2018-10-04T16:29:19.661Z,2.30
2018-10-04T16:31:49.079Z,2.40
2018-10-04T16:34:17.245Z,2.67
2018-10-04T16:36:45.500Z,2.23
2018-10-04T16:39:13.694Z,2.37
2018-10-04T16:41:42.051Z,2.30
2018-10-04T16:44:11.060Z,2.60
2018-10-04T16:46:39.232Z,2.33
2018-10-04T16:49:07.398Z,2.90
2018-10-04T16:51:36.174Z,2.70
2018-10-04T16:54:05.036Z,2.53
2018-10-04T16:56:33.249Z,2.77
2018-10-04T16:59:01.445Z,2.70
2018-10-04T17:01:29.664Z,3.23
2018-10-04T17:03:57.893Z,3.10
2018-10-04T17:06:26.585Z,2.90
2018-10-04T17:08:54.897Z,3.10
2018-10-04T17:11:23.106Z,3.03
2018-10-04T17:13:52.083Z,3.07
2018-10-04T17:16:20.774Z,2.83
2018-10-04T17:18:49.518Z,2.90
2018-10-04T17:21:18.146Z,3.23
2018-10-04T17:23:46.515Z,3.10
2018-10-04T17:26:16.262Z,2.80
2018-10-04T17:28:44.661Z,2.77
2018-10-04T17:31:12.874Z,3.30
2018-10-04T17:33:42.029Z,2.93
2018-10-04T17:36:10.336Z,2.87
2018-10-04T17:38:38.513Z,3.80
2018-10-04T17:41:07.295Z,2.87
2018-10-04T17:43:35.648Z,3.07
2018-10-04T17:46:04.319Z,2.67
2018-10-04T17:48:34.317Z,3.07
2018-10-04T17:51:02.562Z,2.87
2018-10-04T17:53:32.098Z,2.77
2018-10-04T17:56:00.469Z,3.10
2018-10-04T17:58:28.782Z,3.10
2018-10-04T18:00:57.266Z,3.20
2018-10-04T18:03:25.868Z,2.50
2018-10-04T18:05:54.205Z,2.97
2018-10-04T18:08:22.593Z,2.97
2018-10-04T18:10:51.147Z,2.83
2018-10-04T18:13:19.874Z,2.70
2018-10-04T18:15:48.218Z,2.83
2018-10-04T18:18:16.584Z,3.23
2018-10-04T18:20:44.807Z,2.90
2018-10-04T18:23:13.103Z,3.07
2018-10-04T18:25:41.663Z,2.63
2018-10-04T18:28:10.334Z,3.23
2018-10-04T18:30:38.509Z,2.53
2018-10-04T18:33:06.944Z,2.73
2018-10-04T18:35:35.253Z,3.30
2018-10-04T18:38:03.530Z,2.80
2018-10-04T18:40:31.782Z,2.83
2018-10-04T18:43:00.414Z,3.00
2018-10-04T18:45:28.799Z,3.10
2018-10-04T18:47:57.033Z,3.67
2018-10-04T18:50:25.438Z,2.77
2018-10-04T18:52:53.644Z,3.10
2018-10-04T18:55:21.838Z,2.73
2018-10-04T18:57:50.319Z,3.10
2018-10-04T19:00:19.467Z,3.13
2018-10-04T19:02:47.737Z,3.07
2018-10-04T19:05:16.034Z,3.70
2018-10-04T19:07:44.388Z,3.37
2018-10-04T19:10:12.574Z,3.20
2018-10-04T19:12:41.501Z,3.23
2018-10-04T19:15:09.689Z,3.83
2018-10-04T19:17:37.942Z,3.67
2018-10-04T19:20:06.443Z,3.00
2018-10-04T19:22:34.677Z,3.97
2018-10-04T19:25:03.242Z,3.50
2018-10-04T19:27:31.486Z,4.27
2018-10-04T19:30:00.518Z,3.97
2018-10-04T19:32:28.850Z,4.20
2018-10-04T19:34:57.112Z,4.10
2018-10-04T19:37:25.434Z,4.90
2018-10-04T19:39:53.879Z,5.17
2018-10-04T19:42:22.073Z,5.00
2018-10-04T19:44:50.363Z,5.23
2018-10-04T19:47:18.662Z,5.80
2018-10-04T19:49:48.196Z,5.37
2018-10-04T19:52:16.425Z,8.63
2018-10-04T19:54:44.682Z,8.63
2018-10-04T19:57:12.905Z,8.10
2018-10-04T19:59:41.365Z,5.47
2018-10-04T20:02:11.106Z,5.83
2018-10-04T20:04:39.282Z,5.50
2018-10-04T20:07:07.486Z,5.53
2018-10-04T20:09:35.720Z,5.00
2018-10-04T20:12:04.317Z,7.10
2018-10-04T20:14:33.019Z,6.73
2018-10-04T20:17:01.527Z,5.63
2018-10-04T20:19:30.131Z,5.80
2018-10-04T20:21:58.644Z,5.40
2018-10-04T20:24:27.263Z,5.77
2018-10-04T20:26:56.017Z,5.23
2018-10-04T20:29:24.340Z,5.10
2018-10-04T20:31:52.744Z,6.33
2018-10-04T20:34:21.341Z,6.30
2018-10-04T20:36:49.790Z,7.17
2018-10-04T20:39:18.157Z,6.33
2018-10-04T20:41:46.474Z,6.73
2018-10-04T20:44:14.696Z,6.00
2018-10-04T20:46:42.973Z,7.13
2018-10-04T20:49:11.362Z,6.60
2018-10-04T20:51:40.948Z,6.30
2018-10-04T20:54:09.260Z,6.63
2018-10-04T20:56:37.597Z,6.37
2018-10-04T20:59:06.288Z,6.27
2018-10-04T21:01:34.578Z,6.73
2018-10-04T21:04:03.621Z,6.83
2018-10-04T21:06:32.025Z,6.63
2018-10-04T21:09:00.333Z,6.50
2018-10-04T21:11:28.616Z,6.60
2018-10-04T21:13:57.169Z,6.60
2018-10-04T21:16:25.615Z,7.20
2018-10-04T21:18:53.918Z,6.40
2018-10-04T21:21:22.300Z,6.33
2018-10-04T21:23:51.065Z,6.70
2018-10-04T21:26:19.477Z,6.70
2018-10-04T21:28:48.193Z,6.40
2018-10-04T21:31:16.414Z,5.87
2018-10-04T21:33:44.703Z,6.17
2018-10-04T21:36:12.954Z,5.90
2018-10-04T21:38:41.185Z,7.30
2018-10-04T21:41:09.381Z,7.63
2018-10-04T21:43:37.655Z,7.27
2018-10-04T21:46:05.919Z,7.63
2018-10-04T21:48:34.212Z,7.43
2018-10-04T21:51:03.079Z,7.50
2018-10-04T21:53:31.325Z,6.53
2018-10-04T21:55:59.531Z,7.23
2018-10-04T21:58:27.739Z,6.93
2018-10-04T22:00:57.179Z,7.27
2018-10-04T22:03:26.416Z,7.70
2018-10-04T22:05:54.761Z,7.07
2018-10-04T22:08:23.227Z,7.13
2018-10-04T22:10:51.801Z,7.33
2018-10-04T22:13:20.082Z,7.27
2018-10-04T22:15:48.414Z,7.37
2018-10-04T22:18:16.672Z,7.53
2018-10-04T22:20:44.858Z,7.53
2018-10-04T22:23:13.946Z,6.97
2018-10-04T22:25:43.516Z,6.73
2018-10-04T22:28:11.998Z,6.63
2018-10-04T22:30:40.558Z,6.27
2018-10-04T22:33:08.812Z,7.03
2018-10-04T22:35:37.065Z,7.40
2018-10-04T22:38:05.358Z,6.73
2018-10-04T22:40:33.722Z,6.40
2018-10-04T22:43:01.957Z,7.00
2018-10-04T22:45:30.273Z,6.47
2018-10-04T22:47:58.559Z,7.10
2018-10-04T22:50:27.055Z,6.83
2018-10-04T22:52:56.238Z,8.73
2018-10-04T22:55:24.441Z,8.33
2018-10-04T22:57:52.621Z,7.07
2018-10-04T23:00:21.090Z,6.80
2018-10-04T23:02:51.152Z,7.43
2018-10-04T23:05:19.539Z,6.50
2018-10-04T23:07:48.564Z,7.87
2018-10-04T23:10:16.784Z,7.23
2018-10-04T23:12:45.002Z,8.40
2018-10-04T23:15:13.217Z,6.93
2018-10-04T23:17:41.759Z,7.67
2018-10-04T23:20:10.190Z,6.93
2018-10-04T23:22:38.501Z,7.93
2018-10-04T23:25:06.918Z,8.27
2018-10-04T23:27:35.647Z,7.70
2018-10-04T23:30:03.962Z,7.93
2018-10-04T23:32:32.170Z,7.00
2018-10-04T23:35:00.929Z,7.30
2018-10-04T23:37:29.126Z,8.37
2018-10-04T23:39:57.530Z,7.77
2018-10-04T23:42:25.794Z,8.10
2018-10-04T23:44:54.059Z,7.50
2018-10-04T23:47:22.313Z,7.47
2018-10-04T23:49:50.654Z,7.13
2018-10-04T23:52:19.964Z,7.20
2018-10-04T23:54:48.598Z,6.23
2018-10-04T23:57:16.801Z,6.73
2018-10-04T23:59:45.147Z,6.90
